| time (UTC) | temp F | wind direction | speed knots | gust knots | rain 1hr in | rain 24hr in | rain mn in | humidity % | barometer mb |
| 20260509000040 | 65 | 0 | 0.0 | 2.6 | 0.00 | 0.00 | 0.00 | 77 | 1014.8 |
| 20260508234537 | 66 | 0 | 0.0 | 0.9 | 0.00 | 0.00 | 0.00 | 74 | 1014.6 |
| 20260508233037 | 66 | 0 | 0.0 | 0.9 | 0.00 | 0.00 | 0.00 | 75 | 1014.6 |
| 20260508231545 | 66 | 0 | 0.0 | 2.6 | 0.00 | 0.00 | 0.00 | 73 | 1014.6 |
| 20260508230044 | 66 | 0 | 0.0 | 1.7 | 0.00 | 0.00 | 0.00 | 71 | 1014.6 |
| 20260508224542 | 66 | 137 | 0.9 | 2.6 | 0.00 | 0.00 | 0.00 | 71 | 1014.6 |
| 20260508223042 | 67 | 121 | 0.0 | 5.2 | 0.00 | 0.00 | 0.00 | 70 | 1014.5 |
| 20260508221538 | 68 | 200 | 0.0 | 2.6 | 0.00 | 0.00 | 0.00 | 69 | 1014.4 |
| 20260508220039 | 68 | 0 | 0.0 | 0.9 | 0.00 | 0.00 | 0.00 | 62 | 1014.6 |
| 20260508214545 | 68 | 0 | 0.0 | 3.5 | 0.00 | 0.00 | 0.00 | 62 | 1014.5 |
| 20260508213048 | 68 | 0 | 0.9 | 3.5 | 0.00 | 0.00 | 0.00 | 62 | 1014.5 |
| 20260508211542 | 69 | 0 | 0.0 | 3.5 | 0.00 | 0.00 | 0.00 | 60 | 1014.5 |
| 20260508210038 | 69 | 173 | 1.7 | 4.3 | 0.00 | 0.00 | 0.00 | 59 | 1014.7 |
| 20260508204537 | 69 | 248 | 1.7 | 5.2 | 0.00 | 0.00 | 0.00 | 58 | 1014.6 |
| 20260508203035 | 70 | 188 | 0.0 | 2.6 | 0.00 | 0.00 | 0.00 | 57 | 1014.8 |
| 20260508201547 | 69 | 0 | 0.9 | 7.0 | 0.00 | 0.00 | 0.00 | 57 | 1015.0 |
| 20260508200038 | 70 | 132 | 1.7 | 8.7 | 0.00 | 0.00 | 0.00 | 56 | 1015.1 |
| 20260508194537 | 70 | 138 | 2.6 | 8.7 | 0.00 | 0.00 | 0.00 | 57 | 1015.2 |
| 20260508193045 | 70 | 130 | 0.9 | 7.0 | 0.00 | 0.00 | 0.00 | 55 | 1015.5 |
| 20260508191539 | 70 | 163 | 0.9 | 5.2 | 0.00 | 0.00 | 0.00 | 55 | 1015.9 |
| 20260508190036 | 70 | 318 | 2.6 | 7.0 | 0.00 | 0.00 | 0.00 | 53 | 1015.9 |
| 20260508184540 | 70 | 256 | 3.5 | 7.8 | 0.00 | 0.00 | 0.00 | 52 | 1016.0 |
| 20260508183038 | 69 | 133 | 1.7 | 7.8 | 0.00 | 0.00 | 0.00 | 55 | 1016.4 |
| 20260508181537 | 70 | 135 | 3.5 | 8.7 | 0.00 | 0.00 | 0.00 | 54 | 1016.5 |
| 20260508180037 | 68 | 98 | 0.9 | 5.2 | 0.00 | 0.00 | 0.00 | 56 | 1016.8 |
| 20260508174539 | 69 | 124 | 4.3 | 11.3 | 0.00 | 0.00 | 0.00 | 55 | 1017.0 |
| 20260508173039 | 69 | 134 | 1.7 | 11.3 | 0.00 | 0.00 | 0.00 | 58 | 1017.3 |
| 20260508171538 | 68 | 267 | 2.6 | 8.7 | 0.00 | 0.00 | 0.00 | 57 | 1017.2 |
| 20260508170037 | 68 | 123 | 2.6 | 7.8 | 0.00 | 0.00 | 0.00 | 54 | 1017.4 |
| 20260508164544 | 68 | 267 | 0.9 | 9.6 | 0.00 | 0.00 | 0.00 | 56 | 1017.7 |
| 20260508163038 | 66 | 240 | 3.5 | 11.3 | 0.00 | 0.00 | 0.00 | 58 | 1017.9 |
| 20260508161543 | 67 | 96 | 1.7 | 9.6 | 0.00 | 0.00 | 0.00 | 58 | 1018.1 |
| 20260508160037 | 65 | 150 | 0.9 | 7.8 | 0.00 | 0.00 | 0.00 | 61 | 1018.4 |
| 20260508154537 | 66 | 101 | 3.5 | 8.7 | 0.00 | 0.00 | 0.00 | 58 | 1018.3 |
| 20260508153037 | 66 | 95 | 2.6 | 7.0 | 0.00 | 0.00 | 0.00 | 59 | 1018.7 |
| 20260508151542 | 65 | 86 | 1.7 | 7.8 | 0.00 | 0.00 | 0.00 | 60 | 1018.7 |
| 20260508150040 | 65 | 98 | 3.5 | 8.7 | 0.00 | 0.00 | 0.00 | 60 | 1018.6 |
| 20260508144538 | 64 | 126 | 1.7 | 7.0 | 0.00 | 0.00 | 0.00 | 65 | 1018.6 |
| 20260508143036 | 64 | 99 | 3.5 | 7.0 | 0.00 | 0.00 | 0.00 | 66 | 1018.6 |
| 20260508141537 | 63 | 110 | 2.6 | 7.0 | 0.00 | 0.00 | 0.00 | 64 | 1018.6 |
| 20260508140037 | 61 | 115 | 0.9 | 6.1 | 0.00 | 0.00 | 0.00 | 69 | 1018.9 |
| 20260508134536 | 60 | 12 | 0.0 | 2.6 | 0.00 | 0.02 | 0.00 | 80 | 1019.2 |
| 20260508133037 | 59 | 0 | 0.9 | 3.5 | 0.00 | 0.02 | 0.00 | 83 | 1019.2 |
| 20260508131541 | 58 | 349 | 0.0 | 2.6 | 0.00 | 0.02 | 0.00 | 84 | 1019.1 |
| 20260508130036 | 57 | 0 | 0.0 | 0.0 | 0.00 | 0.02 | 0.00 | 90 | 1019.0 |
| 20260508124535 | 56 | 0 | 0.0 | 1.7 | 0.00 | 0.09 | 0.00 | 92 | 1018.8 |
| 20260508123040 | 54 | 17 | 0.0 | 1.7 | 0.00 | 0.09 | 0.00 | 94 | 1018.5 |
| 20260508121542 | 52 | 18 | 0.0 | 1.7 | 0.00 | 0.09 | 0.00 | 95 | 1018.2 |
| 20260508120042 | 50 | 0 | 0.0 | 2.6 | 0.00 | 0.09 | 0.00 | 96 | 1018.1 |
| 20260508114535 | 48 | 0 | 0.0 | 0.0 | 0.00 | 0.16 | 0.00 | 95 | 1018.0 |
| 20260508113040 | 47 | 0 | 0.0 | 0.0 | 0.00 | 0.16 | 0.00 | 95 | 1017.7 |
| 20260508111557 | 47 | 0 | 0.0 | 0.0 | 0.00 | 0.16 | 0.00 | 95 | 1017.5 |
| 20260508110036 | 47 | 0 | 0.0 | 0.0 | 0.00 | 0.16 | 0.00 | 95 | 1017.0 |
| 20260508104538 | 47 | 0 | 0.0 | 0.0 | 0.00 | 0.28 | 0.00 | 95 | 1016.8 |
| 20260508103038 | 47 | 0 | 0.0 | 0.0 | 0.00 | 0.28 | 0.00 | 95 | 1016.5 |
| 20260508101535 | 47 | 0 | 0.0 | 0.0 | 0.00 | 0.28 | 0.00 | 95 | 1016.3 |
| 20260508100034 | 47 | 26 | 0.0 | 2.6 | 0.00 | 0.28 | 0.00 | 94 | 1016.0 |
| 20260508094537 | 48 | 28 | 0.0 | 1.7 | 0.00 | 0.31 | 0.00 | 94 | 1015.9 |
| 20260508093036 | 48 | 0 | 0.0 | 0.0 | 0.00 | 0.31 | 0.00 | 94 | 1015.8 |
| 20260508091544 | 48 | 0 | 0.0 | 0.0 | 0.00 | 0.31 | 0.00 | 94 | 1015.7 |
| 20260508090040 | 49 | 0 | 0.0 | 0.0 | 0.00 | 0.31 | 0.00 | 94 | 1015.6 |
| 20260508084549 | 49 | 0 | 0.0 | 0.0 | 0.00 | 0.36 | 0.00 | 94 | 1015.4 |
| 20260508083049 | 49 | 0 | 0.0 | 0.0 | 0.00 | 0.36 | 0.00 | 94 | 1015.3 |
| 20260508081544 | 49 | 0 | 0.0 | 0.0 | 0.00 | 0.36 | 0.00 | 94 | 1015.4 |
| 20260508080035 | 49 | 0 | 0.0 | 0.0 | 0.00 | 0.36 | 0.00 | 94 | 1015.3 |
| 20260508074538 | 49 | 0 | 0.0 | 0.9 | 0.00 | 0.60 | 0.00 | 94 | 1015.3 |
| 20260508073036 | 50 | 296 | 0.9 | 1.7 | 0.00 | 0.60 | 0.00 | 94 | 1015.3 |
| 20260508071538 | 50 | 0 | 0.0 | 2.6 | 0.00 | 0.60 | 0.00 | 93 | 1015.4 |
| 20260508070038 | 50 | 300 | 0.9 | 1.7 | 0.00 | 0.60 | 0.00 | 93 | 1015.3 |
| 20260508064538 | 50 | 0 | 0.0 | 0.0 | 0.00 | 0.67 | 0.00 | 93 | 1015.3 |
| 20260508063036 | 51 | 0 | 0.0 | 0.9 | 0.00 | 0.67 | 0.00 | 93 | 1015.2 |
| 20260508061541 | 51 | 299 | 0.9 | 1.7 | 0.00 | 0.67 | 0.00 | 93 | 1015.2 |
| 20260508060042 | 51 | 299 | 0.0 | 1.7 | 0.00 | 0.67 | 0.00 | 93 | 1015.3 |
| 20260508054543 | 52 | 0 | 0.0 | 0.9 | 0.00 | 0.82 | 0.00 | 92 | 1015.2 |
| 20260508053035 | 52 | 300 | 0.0 | 1.7 | 0.00 | 0.82 | 0.00 | 92 | 1015.3 |
| 20260508051538 | 52 | 300 | 0.9 | 2.6 | 0.00 | 0.82 | 0.00 | 92 | 1015.3 |
| 20260508050036 | 53 | 0 | 0.0 | 0.0 | 0.00 | 0.82 | 0.00 | 92 | 1015.3 |
| 20260508044536 | 53 | 0 | 0.0 | 0.0 | 0.00 | 1.01 | 0.00 | 91 | 1015.3 |
| 20260508043040 | 54 | 0 | 0.0 | 0.0 | 0.00 | 1.01 | 0.00 | 91 | 1015.1 |
| 20260508041536 | 54 | 0 | 0.0 | 0.0 | 0.00 | 1.01 | 0.00 | 90 | 1015.0 |
| 20260508040037 | 55 | 0 | 0.0 | 0.0 | 0.00 | 1.01 | 0.00 | 89 | 1014.9 |
| 20260508034538 | 55 | 0 | 0.0 | 0.0 | 0.00 | 1.01 | 1.01 | 88 | 1014.7 |
| 20260508033037 | 56 | 0 | 0.0 | 1.7 | 0.00 | 1.01 | 1.01 | 86 | 1014.9 |
| 20260508031536 | 57 | 320 | 0.0 | 2.6 | 0.00 | 1.01 | 1.01 | 85 | 1014.9 |
| 20260508030036 | 58 | 0 | 0.0 | 1.7 | 0.00 | 1.01 | 1.01 | 83 | 1014.5 |
| 20260508024535 | 59 | 281 | 0.9 | 2.6 | 0.00 | 1.02 | 1.01 | 81 | 1014.4 |
| 20260508023036 | 60 | 280 | 1.7 | 3.5 | 0.00 | 1.02 | 1.01 | 78 | 1014.3 |
| 20260508021542 | 61 | 0 | 0.0 | 2.6 | 0.00 | 1.02 | 1.01 | 78 | 1013.9 |
| 20260508020039 | 61 | 316 | 0.9 | 1.7 | 0.00 | 1.02 | 1.01 | 75 | 1014.0 |
| 20260508014535 | 62 | 315 | 0.9 | 3.5 | 0.00 | 1.08 | 1.01 | 75 | 1013.7 |
| 20260508013037 | 62 | 282 | 2.6 | 7.8 | 0.00 | 1.08 | 1.01 | 71 | 1013.2 |
| 20260508011535 | 63 | 263 | 4.3 | 7.8 | 0.00 | 1.08 | 1.01 | 71 | 1013.0 |
| 20260508010041 | 64 | 279 | 2.6 | 7.0 | 0.00 | 1.08 | 1.01 | 70 | 1012.9 |
| 20260508004541 | 64 | 270 | 2.6 | 10.4 | 0.00 | 2.13 | 1.01 | 69 | 1012.5 |
| 20260508003043 | 65 | 270 | 6.1 | 12.2 | 0.00 | 2.13 | 1.01 | 67 | 1012.3 |
| 20260508001543 | 66 | 278 | 6.1 | 13.0 | 0.00 | 2.13 | 1.01 | 67 | 1012.1 |